createdAt,value
2022-11-27T00:00:46.467Z,101913.66
2022-11-27T00:03:33.430Z,101915.59
2022-11-27T00:06:24.377Z,101913.94
2022-11-27T00:09:15.748Z,101912.16
2022-11-27T00:12:03.062Z,101899.00
2022-11-27T00:14:54.649Z,101903.22
2022-11-27T00:17:42.777Z,101905.03
2022-11-27T00:20:30.091Z,101906.84
2022-11-27T00:23:16.907Z,101911.13
2022-11-27T00:26:07.177Z,101908.56
2022-11-27T00:28:54.257Z,101900.78
2022-11-27T00:31:41.571Z,101907.03
2022-11-27T00:34:28.348Z,101906.19
2022-11-27T00:37:15.786Z,101898.44
2022-11-27T00:40:02.430Z,101895.91
2022-11-27T00:42:50.882Z,101893.31
2022-11-27T00:45:37.682Z,101892.44
2022-11-27T00:48:24.750Z,101872.22
2022-11-27T00:51:14.440Z,101864.25
2022-11-27T00:54:02.059Z,101860.75
2022-11-27T00:56:48.963Z,101846.56
2022-11-27T00:59:37.702Z,101844.91
2022-11-27T01:02:24.651Z,101837.09
2022-11-27T01:05:11.987Z,101837.22
2022-11-27T01:07:58.931Z,101830.25
2022-11-27T01:10:54.556Z,101828.59
2022-11-27T01:13:42.935Z,101829.53
2022-11-27T01:16:33.056Z,101840.09
2022-11-27T01:19:19.969Z,101834.06
2022-11-27T01:22:07.273Z,101834.06
2022-11-27T01:24:54.379Z,101839.31
2022-11-27T01:27:41.787Z,101848.16
2022-11-27T01:30:28.927Z,101842.94
2022-11-27T01:33:18.167Z,101839.44
2022-11-27T01:36:07.733Z,101836.84
2022-11-27T01:38:55.486Z,101843.94
2022-11-27T01:41:43.120Z,101841.31
2022-11-27T01:44:51.162Z,101838.88
2022-11-27T01:47:44.710Z,101841.47
2022-11-27T01:50:38.840Z,101851.16
2022-11-27T01:53:26.300Z,101843.16
2022-11-27T01:56:14.328Z,101839.63
2022-11-27T01:59:02.575Z,101835.22
2022-11-27T02:01:50.004Z,101824.72
2022-11-27T02:04:37.128Z,101828.25
2022-11-27T02:07:26.147Z,101828.22
2022-11-27T02:10:14.927Z,101828.12
2022-11-27T02:13:06.763Z,101831.59
2022-11-27T02:16:01.995Z,101824.66
2022-11-27T02:18:57.387Z,101822.84
2022-11-27T02:21:48.308Z,101819.34
2022-11-27T02:24:56.402Z,101822.16
2022-11-27T02:28:11.261Z,101819.47
2022-11-27T02:31:07.092Z,101822.09
2022-11-27T02:34:00.443Z,101818.66
2022-11-27T02:36:54.416Z,101822.19
2022-11-27T02:39:49.794Z,101819.63
2022-11-27T02:42:40.834Z,101820.44
2022-11-27T02:45:33.893Z,101812.50
2022-11-27T02:48:31.236Z,101827.41
2022-11-27T02:51:22.170Z,101816.87
2022-11-27T02:54:12.929Z,101820.41
2022-11-27T02:57:03.703Z,101803.88
2022-11-27T02:59:52.602Z,101799.41
2022-11-27T03:02:44.359Z,101798.56
2022-11-27T03:05:39.010Z,101793.28
2022-11-27T03:08:33.914Z,101793.28
2022-11-27T03:11:21.021Z,101798.47
2022-11-27T03:14:11.317Z,101807.22
2022-11-27T03:17:06.734Z,101796.69
2022-11-27T03:19:55.895Z,101795.87
2022-11-27T03:22:44.851Z,101804.72
2022-11-27T03:25:31.853Z,101799.59
2022-11-27T03:28:19.242Z,101795.22
2022-11-27T03:31:06.439Z,101795.25
2022-11-27T03:33:55.157Z,101795.34
2022-11-27T03:36:41.681Z,101793.63
2022-11-27T03:39:31.584Z,101784.97
2022-11-27T03:42:25.026Z,101783.28
2022-11-27T03:45:25.186Z,101788.53
2022-11-27T03:48:24.021Z,101785.06
2022-11-27T03:51:22.772Z,101788.56
2022-11-27T03:54:20.489Z,101771.12
2022-11-27T03:57:16.950Z,101773.00
2022-11-27T04:00:08.117Z,101783.66
2022-11-27T04:02:55.267Z,101781.03
2022-11-27T04:05:42.277Z,101782.81
2022-11-27T04:08:29.819Z,101774.03
2022-11-27T04:11:17.246Z,101769.66
2022-11-27T04:14:05.983Z,101767.06
2022-11-27T04:16:52.802Z,101761.00
2022-11-27T04:19:40.211Z,101753.97
2022-11-27T04:22:27.159Z,101757.47
2022-11-27T04:25:14.073Z,101745.19
2022-11-27T04:28:00.736Z,101750.47
2022-11-27T04:30:54.748Z,101749.63
2022-11-27T04:33:41.694Z,101747.91
2022-11-27T04:36:29.118Z,101750.62
2022-11-27T04:39:16.106Z,101751.44
2022-11-27T04:42:03.323Z,101754.06
2022-11-27T04:44:50.755Z,101750.59
2022-11-27T04:47:38.888Z,101765.56
2022-11-27T04:50:26.010Z,101772.63
2022-11-27T04:53:13.125Z,101769.13
2022-11-27T04:55:59.933Z,101756.00
2022-11-27T04:58:47.365Z,101747.22
2022-11-27T05:01:34.555Z,101745.47
2022-11-27T05:04:23.819Z,101755.25
2022-11-27T05:07:10.682Z,101753.44
2022-11-27T05:09:57.675Z,101745.66
2022-11-27T05:12:44.552Z,101755.31
2022-11-27T05:15:31.469Z,101753.59
2022-11-27T05:18:18.290Z,101755.34
2022-11-27T05:21:08.899Z,101748.28
2022-11-27T05:23:55.819Z,101744.78
2022-11-27T05:26:43.586Z,101748.31
2022-11-27T05:29:30.867Z,101758.94
2022-11-27T05:32:18.211Z,101760.72
2022-11-27T05:35:05.507Z,101758.09
2022-11-27T05:37:54.049Z,101751.94
2022-11-27T05:40:41.068Z,101760.69
2022-11-27T05:43:28.146Z,101759.81
2022-11-27T05:46:17.913Z,101760.72
2022-11-27T05:49:06.256Z,101754.63
2022-11-27T05:51:52.811Z,101753.81
2022-11-27T05:54:41.313Z,101750.28
2022-11-27T05:57:28.478Z,101744.12
2022-11-27T06:00:16.595Z,101740.69
2022-11-27T06:03:04.204Z,101739.81
2022-11-27T06:05:50.910Z,101746.91
2022-11-27T06:08:38.615Z,101748.69
2022-11-27T06:11:26.975Z,101753.91
2022-11-27T06:14:14.471Z,101751.28
2022-11-27T06:17:01.298Z,101744.22
2022-11-27T06:19:48.614Z,101750.38
2022-11-27T06:22:35.250Z,101751.31
2022-11-27T06:25:22.692Z,101747.03
2022-11-27T06:28:10.863Z,101753.19
2022-11-27T06:33:45.445Z,101745.31
2022-11-27T06:36:34.300Z,101733.91
2022-11-27T06:39:21.050Z,101731.28
2022-11-27T06:42:08.143Z,101718.19
2022-11-27T06:44:56.579Z,101709.50
2022-11-27T06:47:43.803Z,101702.41
2022-11-27T06:50:30.579Z,101704.22
2022-11-27T06:53:19.527Z,101703.22
2022-11-27T06:56:08.581Z,101700.56
2022-11-27T06:58:57.692Z,101696.19
2022-11-27T07:01:45.801Z,101697.94
2022-11-27T07:04:32.994Z,101692.62
2022-11-27T07:07:20.052Z,101695.22
2022-11-27T07:10:08.730Z,101694.28
2022-11-27T07:12:55.574Z,101689.00
2022-11-27T07:15:43.453Z,101684.47
2022-11-27T07:18:32.365Z,101684.44
2022-11-27T07:21:20.090Z,101679.91
2022-11-27T07:24:07.974Z,101680.59
2022-11-27T07:26:55.610Z,101679.56
2022-11-27T07:29:42.836Z,101682.94
2022-11-27T07:32:30.180Z,101682.81
2022-11-27T07:35:18.871Z,101679.22
2022-11-27T07:38:06.346Z,101681.84
2022-11-27T07:40:53.982Z,101672.16
2022-11-27T07:43:42.896Z,101680.87
2022-11-27T07:46:30.918Z,101679.03
2022-11-27T07:49:18.662Z,101678.03
2022-11-27T07:52:07.540Z,101675.25
2022-11-27T07:54:55.343Z,101672.38
2022-11-27T07:57:42.955Z,101678.34
2022-11-27T08:00:30.281Z,101672.09
2022-11-27T08:03:17.593Z,101664.88
2022-11-27T08:06:04.407Z,101663.81
2022-11-27T08:08:54.908Z,101669.06
2022-11-27T08:11:41.816Z,101662.03
2022-11-27T08:14:29.253Z,101656.66
2022-11-27T08:17:16.055Z,101665.28
2022-11-27T08:20:04.328Z,101672.12
2022-11-27T08:22:51.370Z,101651.81
2022-11-27T08:25:40.113Z,101657.69
2022-11-27T08:28:27.025Z,101657.56
2022-11-27T08:31:15.598Z,101660.09
2022-11-27T08:34:02.466Z,101652.06
2022-11-27T08:36:49.655Z,101652.69
2022-11-27T08:39:36.801Z,101641.97
2022-11-27T08:42:25.630Z,101644.47
2022-11-27T08:45:12.983Z,101638.13
2022-11-27T08:48:00.439Z,101641.19
2022-11-27T08:50:47.468Z,101628.50
2022-11-27T08:53:36.006Z,101634.50
2022-11-27T08:56:24.245Z,101633.69
2022-11-27T08:59:13.314Z,101635.25
2022-11-27T09:02:00.651Z,101635.91
2022-11-27T09:04:47.966Z,101632.28
2022-11-27T09:07:34.848Z,101636.34
2022-11-27T09:10:22.726Z,101627.41
2022-11-27T09:13:09.604Z,101622.78
2022-11-27T09:15:58.720Z,101622.59
2022-11-27T09:18:46.577Z,101634.63
2022-11-27T09:21:33.787Z,101622.81
2022-11-27T09:24:20.485Z,101621.50
2022-11-27T09:27:08.192Z,101631.66
2022-11-27T09:29:55.316Z,101627.94
2022-11-27T09:32:44.083Z,101628.31
2022-11-27T09:35:31.043Z,101638.66
2022-11-27T09:38:18.605Z,101630.25
2022-11-27T09:41:14.820Z,101627.81
2022-11-27T09:44:07.618Z,101628.09
2022-11-27T09:46:56.516Z,101629.50
2022-11-27T09:49:50.623Z,101620.72
2022-11-27T09:52:42.501Z,101616.87
2022-11-27T09:55:33.726Z,101604.22
2022-11-27T09:58:27.064Z,101597.38
2022-11-27T10:01:16.329Z,101599.50
2022-11-27T10:04:03.529Z,101599.87
2022-11-27T10:07:10.756Z,101590.56
2022-11-27T10:10:09.986Z,101590.56
2022-11-27T10:13:05.701Z,101586.63
2022-11-27T10:15:57.602Z,101586.75
2022-11-27T10:18:51.542Z,101586.47
2022-11-27T10:21:47.830Z,101586.84
2022-11-27T10:24:47.631Z,101575.78
2022-11-27T10:27:44.878Z,101587.47
2022-11-27T10:30:34.050Z,101581.41
2022-11-27T10:33:26.986Z,101578.66
2022-11-27T10:36:16.726Z,101575.47
2022-11-27T10:39:07.917Z,101564.34
2022-11-27T10:42:02.719Z,101575.06
2022-11-27T10:44:54.729Z,101565.13
2022-11-27T10:47:44.140Z,101563.94
2022-11-27T10:50:31.443Z,101556.31
2022-11-27T10:53:27.026Z,101557.25
2022-11-27T10:56:48.745Z,101546.41
2022-11-27T10:59:42.607Z,101540.88
2022-11-27T11:02:32.941Z,101531.19
2022-11-27T11:05:40.982Z,101526.88
2022-11-27T11:08:32.625Z,101531.69
2022-11-27T11:11:27.025Z,101522.94
2022-11-27T11:14:19.392Z,101519.25
2022-11-27T11:17:18.503Z,101512.16
2022-11-27T11:20:16.418Z,101506.62
2022-11-27T11:23:03.342Z,101500.38
2022-11-27T11:25:53.326Z,101495.19
2022-11-27T11:28:50.046Z,101486.50
2022-11-27T11:31:40.655Z,101488.50
2022-11-27T11:34:31.089Z,101491.88
2022-11-27T11:37:23.677Z,101486.22
2022-11-27T11:40:27.835Z,101486.88
2022-11-27T11:43:26.669Z,101487.47
2022-11-27T11:46:19.787Z,101491.75
2022-11-27T11:49:16.090Z,101490.28
2022-11-27T11:52:26.521Z,101484.94
2022-11-27T11:55:28.890Z,101469.62
2022-11-27T11:58:41.001Z,101469.69
2022-11-27T12:02:06.178Z,101450.72
2022-11-27T12:05:21.638Z,101446.38
2022-11-27T12:08:41.998Z,101446.25
2022-11-27T12:11:37.095Z,101432.09
2022-11-27T12:14:40.713Z,101429.03
2022-11-27T12:17:43.237Z,101429.03
2022-11-27T12:20:42.644Z,101416.94
2022-11-27T12:23:59.589Z,101415.75
2022-11-27T12:26:59.857Z,101414.59
2022-11-27T12:30:13.273Z,101410.41
2022-11-27T12:33:29.740Z,101391.59
2022-11-27T12:36:29.205Z,101390.72
2022-11-27T12:39:25.625Z,101392.53
2022-11-27T12:42:22.275Z,101393.81
2022-11-27T12:45:20.227Z,101382.19
2022-11-27T12:48:15.799Z,101390.56
2022-11-27T12:51:08.800Z,101384.72
2022-11-27T12:54:01.792Z,101380.72
2022-11-27T12:56:54.839Z,101384.56
2022-11-27T12:59:47.472Z,101382.37
2022-11-27T13:02:39.749Z,101381.88
2022-11-27T13:05:30.733Z,101371.25
2022-11-27T13:08:24.881Z,101369.37
2022-11-27T13:11:14.775Z,101356.91
2022-11-27T13:14:08.527Z,101354.84
2022-11-27T13:16:59.635Z,101354.00
2022-11-27T13:19:50.325Z,101363.22
2022-11-27T13:22:38.162Z,101360.47
2022-11-27T13:25:26.878Z,101364.34
2022-11-27T13:28:25.324Z,101375.31
2022-11-27T13:31:20.563Z,101370.94
2022-11-27T13:34:12.664Z,101360.19
2022-11-27T13:37:01.635Z,101354.47
2022-11-27T13:39:49.449Z,101350.84
2022-11-27T13:42:37.907Z,101341.66
2022-11-27T13:45:29.191Z,101338.22
2022-11-27T13:48:34.558Z,101339.44
2022-11-27T13:51:28.423Z,101335.81
2022-11-27T13:54:18.076Z,101331.94
2022-11-27T13:57:14.139Z,101329.19
2022-11-27T14:00:04.010Z,101323.00
2022-11-27T14:03:03.548Z,101322.47
2022-11-27T14:05:53.118Z,101318.47
2022-11-27T14:08:40.142Z,101320.41
2022-11-27T14:11:40.088Z,101324.13
2022-11-27T14:14:29.702Z,101313.09
2022-11-27T14:17:27.452Z,101324.97
2022-11-27T14:20:26.553Z,101313.66
2022-11-27T14:23:29.823Z,101311.34
2022-11-27T14:26:24.009Z,101306.50
2022-11-27T14:29:12.778Z,101299.88
2022-11-27T14:32:01.438Z,101302.06
2022-11-27T14:34:49.212Z,101303.38
2022-11-27T14:37:36.576Z,101301.50
2022-11-27T14:40:28.564Z,101293.16
2022-11-27T14:43:17.367Z,101289.41
2022-11-27T14:46:08.434Z,101294.31
2022-11-27T14:48:57.154Z,101285.00
2022-11-27T14:51:48.574Z,101277.34
2022-11-27T14:54:40.174Z,101279.66
2022-11-27T14:57:30.511Z,101269.78
2022-11-27T15:00:19.435Z,101273.59
2022-11-27T15:03:11.711Z,101269.44
2022-11-27T15:06:00.387Z,101267.19
2022-11-27T15:09:15.953Z,101265.59
2022-11-27T15:12:01.745Z,101264.09
2022-11-27T15:14:58.343Z,101254.44
2022-11-27T15:17:49.916Z,101260.72
2022-11-27T15:20:40.300Z,101251.28
2022-11-27T15:23:29.216Z,101245.88
2022-11-27T15:26:30.799Z,101243.44
2022-11-27T15:29:36.080Z,101237.28
2022-11-27T15:32:26.881Z,101232.84
2022-11-27T15:35:16.039Z,101231.41
2022-11-27T15:38:10.844Z,101219.97
2022-11-27T15:41:01.722Z,101219.97
2022-11-27T15:43:48.952Z,101211.06
2022-11-27T15:46:36.357Z,101203.09
2022-11-27T15:49:25.105Z,101204.97
2022-11-27T15:52:11.727Z,101205.16
2022-11-27T15:54:59.298Z,101190.16
2022-11-27T15:57:46.226Z,101191.19
2022-11-27T16:00:33.419Z,101191.25
2022-11-27T16:03:22.487Z,101195.06
2022-11-27T16:06:10.934Z,101188.03
2022-11-27T16:08:59.093Z,101186.59
2022-11-27T16:11:45.670Z,101176.06
2022-11-27T16:14:32.928Z,101176.06
2022-11-27T16:17:19.991Z,101168.19
2022-11-27T16:20:08.891Z,101165.69
2022-11-27T16:22:57.072Z,101155.94
2022-11-27T16:25:44.427Z,101160.44
2022-11-27T16:28:31.938Z,101159.66
2022-11-27T16:31:19.470Z,101155.66
2022-11-27T16:34:06.636Z,101150.66
2022-11-27T16:36:53.827Z,101152.72
2022-11-27T16:39:42.106Z,101142.34
2022-11-27T16:42:29.899Z,101142.63
2022-11-27T16:45:17.639Z,101137.31
2022-11-27T16:48:05.588Z,101131.16
2022-11-27T16:51:03.137Z,101132.09
2022-11-27T16:53:52.693Z,101135.88
2022-11-27T16:56:41.219Z,101136.38
2022-11-27T16:59:28.870Z,101129.09
2022-11-27T17:02:15.740Z,101123.72
2022-11-27T17:05:03.368Z,101122.88
2022-11-27T17:07:50.305Z,101117.56
2022-11-27T17:10:37.856Z,101120.41
2022-11-27T17:13:26.660Z,101115.69
2022-11-27T17:16:13.963Z,101106.09
2022-11-27T17:19:03.225Z,101106.81
2022-11-27T17:21:51.102Z,101101.44
2022-11-27T17:24:40.009Z,101105.72
2022-11-27T17:27:27.437Z,101109.09
2022-11-27T17:30:16.185Z,101095.28
2022-11-27T17:33:03.544Z,101103.06
2022-11-27T17:35:50.630Z,101104.94
2022-11-27T17:38:38.148Z,101105.09
2022-11-27T17:41:26.254Z,101103.53
2022-11-27T17:44:14.321Z,101107.16
2022-11-27T17:47:02.622Z,101104.66
2022-11-27T17:49:50.152Z,101110.91
2022-11-27T17:52:37.146Z,101115.41
2022-11-27T17:55:24.364Z,101107.59
2022-11-27T17:58:11.282Z,101105.16
2022-11-27T18:00:58.805Z,101100.94
2022-11-27T18:03:48.690Z,101099.09
2022-11-27T18:06:36.066Z,101093.91
2022-11-27T18:09:23.519Z,101091.34
2022-11-27T18:12:10.424Z,101076.38
2022-11-27T18:15:01.263Z,101075.75
2022-11-27T18:17:49.008Z,101071.37
2022-11-27T18:20:38.039Z,101069.78
2022-11-27T18:23:25.028Z,101068.06
2022-11-27T18:26:14.588Z,101066.44
2022-11-27T18:29:03.077Z,101055.09
2022-11-27T18:31:51.856Z,101059.19
2022-11-27T18:34:39.397Z,101056.69
2022-11-27T18:37:28.124Z,101055.09
2022-11-27T18:40:15.341Z,101052.25
2022-11-27T18:43:02.587Z,101047.97
2022-11-27T18:45:49.567Z,101043.66
2022-11-27T18:48:38.548Z,101038.59
2022-11-27T18:51:26.621Z,101039.44
2022-11-27T18:54:15.223Z,101036.13
2022-11-27T18:57:02.388Z,101039.72
2022-11-27T18:59:51.735Z,101041.56
2022-11-27T19:02:46.912Z,101039.06
2022-11-27T19:05:36.551Z,101040.94
2022-11-27T19:08:23.550Z,101037.37
2022-11-27T19:11:14.984Z,101036.50
2022-11-27T19:14:02.595Z,101035.75
2022-11-27T19:16:50.824Z,101037.47
2022-11-27T19:19:54.696Z,101035.72
2022-11-27T19:22:42.445Z,101038.50
2022-11-27T19:25:30.174Z,101036.25
2022-11-27T19:28:19.147Z,101029.31
2022-11-27T19:31:07.418Z,101021.78
2022-11-27T19:33:55.824Z,101020.22
2022-11-27T19:36:42.961Z,101017.44
2022-11-27T19:39:30.100Z,101025.44
2022-11-27T19:42:17.125Z,101022.12
2022-11-27T19:45:06.602Z,101019.84
2022-11-27T19:47:53.739Z,101013.06
2022-11-27T19:50:43.071Z,101008.69
2022-11-27T19:53:30.018Z,101006.91
2022-11-27T19:56:17.798Z,101001.81
2022-11-27T19:59:06.059Z,101001.94
2022-11-27T20:01:55.123Z,101001.34
2022-11-27T20:04:44.869Z,100998.25
2022-11-27T20:07:32.219Z,100993.03
2022-11-27T20:10:20.026Z,100976.22
2022-11-27T20:13:06.744Z,100979.63
2022-11-27T20:15:55.470Z,100975.13
2022-11-27T20:18:44.808Z,100972.34
2022-11-27T20:21:32.651Z,100973.34
2022-11-27T20:24:19.388Z,100960.25
2022-11-27T20:27:06.859Z,100965.34
2022-11-27T20:29:54.998Z,100966.13
2022-11-27T20:32:42.641Z,100960.97
2022-11-27T20:35:30.687Z,100958.16
2022-11-27T20:38:17.975Z,100962.44
2022-11-27T20:41:06.934Z,100954.44
2022-11-27T20:43:56.312Z,100950.00
2022-11-27T20:46:43.236Z,100948.44
2022-11-27T20:49:33.764Z,100944.09
2022-11-27T20:52:22.780Z,100944.84
2022-11-27T20:55:10.509Z,100939.69
2022-11-27T20:57:57.679Z,100932.69
2022-11-27T21:00:44.912Z,100927.69
2022-11-27T21:03:32.203Z,100927.59
2022-11-27T21:06:23.097Z,100922.41
2022-11-27T21:09:12.259Z,100927.78
2022-11-27T21:11:59.579Z,100925.44
2022-11-27T21:14:46.326Z,100917.50
2022-11-27T21:17:33.345Z,100911.37
2022-11-27T21:20:20.742Z,100908.13
2022-11-27T21:23:07.972Z,100906.41
2022-11-27T21:25:56.193Z,100906.28
2022-11-27T21:28:43.752Z,100906.19
2022-11-27T21:31:34.507Z,100908.66
2022-11-27T21:34:25.193Z,100908.50
2022-11-27T21:37:12.075Z,100904.00
2022-11-27T21:39:59.594Z,100910.97
2022-11-27T21:42:47.829Z,100897.66
2022-11-27T21:45:37.442Z,100894.87
2022-11-27T21:48:25.020Z,100892.09
2022-11-27T21:51:15.100Z,100885.75
2022-11-27T21:54:02.013Z,100886.69
2022-11-27T21:56:52.702Z,100879.38
2022-11-27T21:59:43.127Z,100884.81
2022-11-27T22:02:30.009Z,100877.81
2022-11-27T22:05:18.619Z,100880.31
2022-11-27T22:08:05.995Z,100882.19
2022-11-27T22:10:53.057Z,100882.97
2022-11-27T22:13:41.091Z,100875.19
2022-11-27T22:16:31.379Z,100878.75
2022-11-27T22:19:18.298Z,100877.03
2022-11-27T22:22:05.616Z,100884.97
2022-11-27T22:24:52.314Z,100878.81
2022-11-27T22:27:39.639Z,100877.81
2022-11-27T22:30:26.873Z,100875.97
2022-11-27T22:33:15.553Z,100874.09
2022-11-27T22:36:11.795Z,100870.66
2022-11-27T22:39:00.758Z,100862.75
2022-11-27T22:41:47.557Z,100864.59
2022-11-27T22:44:34.752Z,100864.59
2022-11-27T22:47:22.057Z,100854.81
2022-11-27T22:50:11.018Z,100853.25
2022-11-27T22:52:58.423Z,100852.44
2022-11-27T22:55:45.785Z,100852.44
2022-11-27T22:58:35.165Z,100851.50
2022-11-27T23:01:26.015Z,100848.06
2022-11-27T23:04:13.099Z,100851.72
2022-11-27T23:07:01.590Z,100851.81
2022-11-27T23:09:48.292Z,100840.63
2022-11-27T23:12:35.768Z,100842.41
2022-11-27T23:15:22.559Z,100837.34
2022-11-27T23:18:10.225Z,100831.34
2022-11-27T23:20:56.782Z,100832.34
2022-11-27T23:23:45.469Z,100839.56
2022-11-27T23:26:32.901Z,100829.06
2022-11-27T23:29:20.133Z,100828.19
2022-11-27T23:32:06.942Z,100827.37
2022-11-27T23:34:54.239Z,100827.37
2022-11-27T23:37:41.744Z,100822.19
2022-11-27T23:40:30.576Z,100823.03
2022-11-27T23:43:16.993Z,100817.75
2022-11-27T23:46:04.806Z,100818.69
2022-11-27T23:48:51.443Z,100812.47
2022-11-27T23:51:38.841Z,100806.31
2022-11-27T23:54:25.718Z,100809.03
2022-11-27T23:57:14.383Z,100803.81
